Time;durP1;ratioP1;P1;durP2;ratioP2;P2;SDS_P1;SDS_P2;PMS_P1;PMS_P2;Temp;Humidity;BMP_temperature;BMP_pressure;BME280_temperature;BME280_humidity;BME280_pressure;Samples;Min_cycle;Max_cycle;Signal;HPM_P1;HPM_P2
2022/11/24 00:01:28;;;;;;;0.52;0.40;;;16.40;68.70;;;;;;4988013;28;20515;-18
2022/11/24 00:03:55;;;;;;;0.57;0.20;;;16.40;68.80;;;;;;4987720;28;20038;-18
2022/11/24 00:06:21;;;;;;;0.45;0.30;;;16.40;68.90;;;;;;4988626;28;20069;-18
2022/11/24 00:08:47;;;;;;;1.63;0.35;;;16.40;69.00;;;;;;4983983;28;20528;-18
2022/11/24 00:11:18;;;;;;;0.40;0.30;;;16.40;69.40;;;;;;4985727;28;20034;-19
2022/11/24 00:13:43;;;;;;;0.38;0.30;;;16.40;68.90;;;;;;4986950;28;20419;-18
2022/11/24 00:16:11;;;;;;;0.50;0.35;;;16.40;69.00;;;;;;4988611;28;20037;-18
2022/11/24 00:18:37;;;;;;;0.30;0.25;;;16.40;69.00;;;;;;4986636;28;20038;-18
2022/11/24 00:21:03;;;;;;;0.45;0.30;;;16.40;68.80;;;;;;4987906;28;20051;-20
2022/11/24 00:23:28;;;;;;;0.88;0.30;;;16.40;68.70;;;;;;4982972;28;20125;-18
2022/11/24 00:25:54;;;;;;;1.02;0.30;;;16.40;68.90;;;;;;4987684;28;20565;-18
2022/11/24 00:28:19;;;;;;;0.40;0.40;;;16.40;68.90;;;;;;4982681;28;20043;-18
2022/11/24 00:30:45;;;;;;;0.38;0.38;;;16.30;69.00;;;;;;4983811;28;20053;-21
2022/11/24 00:33:11;;;;;;;0.50;0.40;;;16.30;69.10;;;;;;4984132;28;20042;-18
2022/11/24 00:35:36;;;;;;;0.63;0.32;;;16.30;69.20;;;;;;4987321;28;20070;-18
2022/11/24 00:38:02;;;;;;;0.57;0.43;;;16.30;69.10;;;;;;4987281;28;20050;-18
2022/11/24 00:40:27;;;;;;;0.32;0.22;;;16.30;69.20;;;;;;4987840;28;20050;-19
2022/11/24 00:42:54;;;;;;;0.68;0.20;;;16.30;69.20;;;;;;4987179;28;20100;-18
2022/11/24 00:45:20;;;;;;;0.75;0.30;;;16.30;69.00;;;;;;4988150;28;20050;-18
2022/11/24 00:47:45;;;;;;;0.40;0.30;;;16.30;69.00;;;;;;4986591;28;20062;-19
2022/11/24 00:50:11;;;;;;;0.52;0.30;;;16.40;68.90;;;;;;4987100;28;20049;-20
2022/11/24 00:52:36;;;;;;;0.20;0.20;;;16.40;68.90;;;;;;4987610;28;20555;-19
2022/11/24 00:55:02;;;;;;;0.28;0.28;;;16.30;69.10;;;;;;4987365;28;20089;-19
2022/11/24 00:57:27;;;;;;;0.52;0.40;;;16.30;69.20;;;;;;4987966;28;20516;-19
2022/11/24 00:59:53;;;;;;;0.30;0.20;;;16.30;69.10;;;;;;4987258;28;20069;-20
2022/11/24 01:02:19;;;;;;;0.22;0.20;;;16.40;69.10;;;;;;4987436;28;20472;-18
2022/11/24 01:04:44;;;;;;;0.20;0.20;;;16.30;69.30;;;;;;4986420;28;20053;-19
2022/11/24 01:07:10;;;;;;;0.70;0.35;;;16.30;69.30;;;;;;4982354;28;20051;-19
2022/11/24 01:09:36;;;;;;;0.30;0.20;;;16.30;69.30;;;;;;4987548;28;20375;-18
2022/11/24 01:12:02;;;;;;;0.22;0.22;;;16.30;69.40;;;;;;5002155;28;20058;-18
2022/11/24 01:14:28;;;;;;;0.30;0.30;;;16.30;69.40;;;;;;4987856;28;20530;-23
2022/11/24 01:16:54;;;;;;;0.43;0.30;;;16.30;69.40;;;;;;4986823;28;20066;-18
2022/11/24 01:19:20;;;;;;;0.90;0.32;;;16.30;69.50;;;;;;4984410;28;20129;-18
2022/11/24 01:21:45;;;;;;;0.77;0.50;;;16.30;69.40;;;;;;5002079;28;20057;-19
2022/11/24 01:24:11;;;;;;;0.50;0.30;;;16.20;69.60;;;;;;4985910;28;20097;-18
2022/11/24 01:26:37;;;;;;;0.57;0.30;;;16.20;69.60;;;;;;4980157;28;20054;-18
2022/11/24 01:29:03;;;;;;;0.57;0.40;;;16.30;69.50;;;;;;4984844;28;21593;-18
2022/11/24 01:31:28;;;;;;;0.80;0.47;;;16.30;70.30;;;;;;4987570;28;20057;-19
2022/11/24 01:33:54;;;;;;;0.35;0.35;;;16.30;69.40;;;;;;4987024;28;20100;-18
2022/11/24 01:36:19;;;;;;;1.23;0.22;;;16.30;69.40;;;;;;4987739;28;20077;-20
2022/11/24 01:38:45;;;;;;;0.38;0.30;;;16.30;69.40;;;;;;4986710;28;20038;-18
2022/11/24 01:41:18;;;;;;;0.17;0.13;;;16.20;70.40;;;;;;4986371;28;20141;-19
2022/11/24 01:43:44;;;;;;;0.32;0.30;;;16.20;70.40;;;;;;4983138;28;20053;-19
2022/11/24 01:46:18;;;;;;;0.32;0.20;;;16.30;69.70;;;;;;4988110;28;20050;-19
2022/11/24 01:48:56;;;;;;;0.22;0.22;;;16.30;69.50;;;;;;4989057;28;20097;-18
2022/11/24 01:51:23;;;;;;;0.32;0.20;;;16.20;69.60;;;;;;4988660;28;20038;-18
2022/11/24 01:53:53;;;;;;;0.47;0.30;;;16.20;69.60;;;;;;4988011;28;20104;-18
2022/11/24 01:56:19;;;;;;;0.38;0.20;;;16.20;69.60;;;;;;4985202;28;20516;-18
2022/11/24 01:58:44;;;;;;;0.30;0.30;;;16.20;69.70;;;;;;4984416;28;20111;-17
2022/11/24 02:01:10;;;;;;;0.30;0.30;;;16.20;69.60;;;;;;4988548;28;20053;-18
2022/11/24 02:03:36;;;;;;;0.38;0.20;;;16.20;69.70;;;;;;5013108;28;20475;-19
2022/11/24 02:06:10;;;;;;;0.57;0.30;;;16.20;69.80;;;;;;4988710;28;20034;-18
2022/11/24 02:08:49;;;;;;;0.60;0.28;;;16.20;69.50;;;;;;5020020;28;20035;-20
2022/11/24 02:11:15;;;;;;;0.50;0.40;;;16.20;69.30;;;;;;4985290;28;20034;-18
2022/11/24 02:13:40;;;;;;;0.50;0.20;;;16.20;69.40;;;;;;4985843;28;20023;-18
2022/11/24 02:16:07;;;;;;;0.22;0.20;;;16.20;70.20;;;;;;4988413;28;20850;-19
2022/11/24 02:18:32;;;;;;;0.50;0.20;;;16.30;69.30;;;;;;4986189;28;20027;-21
2022/11/24 02:20:58;;;;;;;0.50;0.30;;;16.30;69.30;;;;;;5006316;28;20046;-20
2022/11/24 02:23:34;;;;;;;0.40;0.30;;;16.30;69.20;;;;;;4983427;28;20447;-18
2022/11/24 02:26:26;;;;;;;0.32;0.20;;;16.30;69.10;;;;;;4992856;28;20190;-19
2022/11/24 02:28:52;;;;;;;0.40;0.25;;;16.30;69.30;;;;;;4988849;28;20503;-18
2022/11/24 02:31:17;;;;;;;0.30;0.28;;;16.30;69.00;;;;;;4989853;28;20093;-18
2022/11/24 02:33:43;;;;;;;0.50;0.30;;;16.20;69.30;;;;;;4989506;28;20464;-18
2022/11/24 02:36:08;;;;;;;0.52;0.30;;;16.20;69.50;;;;;;4982921;28;20050;-18
2022/11/24 02:38:34;;;;;;;1.27;0.20;;;16.30;69.30;;;;;;4988394;28;20065;-18
2022/11/24 02:41:04;;;;;;;0.50;0.40;;;16.20;69.30;;;;;;4984136;28;20062;-19
2022/11/24 02:43:32;;;;;;;0.25;0.25;;;16.20;69.50;;;;;;4987896;28;20062;-19
2022/11/24 02:45:57;;;;;;;0.40;0.20;;;16.20;69.40;;;;;;4989803;28;20569;-18
2022/11/24 02:48:23;;;;;;;0.32;0.20;;;16.20;69.40;;;;;;4989406;28;20038;-18
2022/11/24 02:50:48;;;;;;;0.20;0.20;;;16.30;69.30;;;;;;4989053;28;20042;-20
2022/11/24 02:53:14;;;;;;;0.43;0.30;;;16.20;69.30;;;;;;4989301;28;20054;-18
2022/11/24 02:55:39;;;;;;;0.35;0.30;;;16.20;69.40;;;;;;4987436;28;20058;-18
2022/11/24 02:58:05;;;;;;;0.60;0.60;;;16.20;69.50;;;;;;4986437;28;20057;-19
2022/11/24 03:00:30;;;;;;;0.20;0.20;;;16.20;69.50;;;;;;4989644;28;20053;-19
2022/11/24 03:02:56;;;;;;;0.30;0.28;;;16.20;69.50;;;;;;4989144;28;20042;-18
2022/11/24 03:05:22;;;;;;;0.70;0.40;;;16.20;69.40;;;;;;4989768;28;20150;-19
2022/11/24 03:07:47;;;;;;;0.40;0.20;;;16.20;69.50;;;;;;4988427;28;20035;-19
2022/11/24 03:10:13;;;;;;;0.20;0.20;;;16.20;69.40;;;;;;4987107;28;20039;-19
2022/11/24 03:12:38;;;;;;;0.20;0.10;;;16.20;69.40;;;;;;4989245;28;20492;-18
2022/11/24 03:15:05;;;;;;;0.20;0.20;;;16.20;69.40;;;;;;4987216;28;20169;-19
2022/11/24 03:17:30;;;;;;;0.40;0.30;;;16.20;69.40;;;;;;4988814;28;20050;-18
2022/11/24 03:19:56;;;;;;;0.20;0.20;;;16.10;69.50;;;;;;4988296;28;20168;-18
2022/11/24 03:22:22;;;;;;;0.20;0.20;;;16.20;69.40;;;;;;4989373;28;20061;-18
2022/11/24 03:24:47;;;;;;;0.40;0.25;;;16.20;69.40;;;;;;5002648;28;20084;-19
2022/11/24 03:27:13;;;;;;;0.35;0.30;;;16.20;69.40;;;;;;4987633;28;20046;-18
2022/11/24 03:29:39;;;;;;;0.52;0.20;;;16.20;69.50;;;;;;4989507;28;20442;-18
2022/11/24 03:32:04;;;;;;;0.50;0.25;;;16.20;69.20;;;;;;4989315;28;20061;-20
2022/11/24 03:34:30;;;;;;;0.28;0.25;;;16.20;69.40;;;;;;4986988;28;20042;-21
2022/11/24 03:36:55;;;;;;;0.20;0.20;;;16.20;69.30;;;;;;4988679;28;20041;-18
2022/11/24 03:39:21;;;;;;;0.22;0.22;;;16.10;69.30;;;;;;4985948;28;20070;-18
2022/11/24 03:41:46;;;;;;;0.40;0.20;;;16.10;69.50;;;;;;4988748;28;20073;-18
2022/11/24 03:44:12;;;;;;;0.47;0.28;;;16.10;69.60;;;;;;4986502;28;20093;-28
2022/11/24 03:46:38;;;;;;;0.30;0.30;;;16.10;69.50;;;;;;4988364;28;20507;-18
2022/11/24 03:49:03;;;;;;;0.40;0.20;;;16.10;69.60;;;;;;4987124;28;20125;-20
2022/11/24 03:51:29;;;;;;;0.47;0.45;;;16.10;69.70;;;;;;4987893;28;20117;-18
2022/11/24 03:53:54;;;;;;;0.28;0.28;;;16.10;69.60;;;;;;4981758;28;20479;-18
2022/11/24 03:56:20;;;;;;;0.30;0.30;;;16.10;69.40;;;;;;4988535;28;20045;-19
2022/11/24 03:58:45;;;;;;;0.30;0.30;;;16.10;69.40;;;;;;4987321;28;20038;-19
2022/11/24 04:01:11;;;;;;;0.20;0.10;;;16.10;69.40;;;;;;4987986;28;20058;-19
2022/11/24 04:03:36;;;;;;;0.15;0.15;;;16.10;69.50;;;;;;4988246;28;20034;-18
2022/11/24 04:06:02;;;;;;;0.40;0.32;;;16.10;69.50;;;;;;4988249;28;20124;-19
2022/11/24 04:08:27;;;;;;;0.35;0.32;;;16.10;69.60;;;;;;4987270;28;20503;-24
2022/11/24 04:10:53;;;;;;;0.40;0.30;;;16.10;69.60;;;;;;4988013;28;20049;-19
2022/11/24 04:13:22;;;;;;;0.20;0.20;;;16.20;70.30;;;;;;4988030;28;20116;-18
2022/11/24 04:15:48;;;;;;;0.30;0.20;;;16.10;69.60;;;;;;4986789;28;20034;-18
2022/11/24 04:18:13;;;;;;;0.20;0.20;;;16.10;69.60;;;;;;4983161;28;20042;-18
2022/11/24 04:20:39;;;;;;;0.50;0.30;;;16.10;69.50;;;;;;4988002;28;20452;-18
2022/11/24 04:23:05;;;;;;;0.30;0.30;;;16.10;69.50;;;;;;4987040;28;20085;-18
2022/11/24 04:25:30;;;;;;;0.20;0.20;;;16.10;69.60;;;;;;4988542;28;20519;-19
2022/11/24 04:27:56;;;;;;;0.30;0.30;;;16.10;69.60;;;;;;4987246;28;20034;-20
2022/11/24 04:30:22;;;;;;;0.55;0.22;;;16.10;69.60;;;;;;4984020;28;20039;-19
2022/11/24 04:32:48;;;;;;;0.45;0.40;;;16.20;69.30;;;;;;5002469;28;20108;-18
2022/11/24 04:35:14;;;;;;;0.22;0.20;;;16.20;69.20;;;;;;4986250;28;20070;-18
2022/11/24 04:37:39;;;;;;;0.38;0.20;;;16.10;69.30;;;;;;4985869;28;20514;-19
2022/11/24 04:40:06;;;;;;;0.30;0.30;;;16.20;69.30;;;;;;4987356;28;20422;-17
2022/11/24 04:42:32;;;;;;;0.40;0.22;;;16.10;69.40;;;;;;4987217;28;20054;-18
2022/11/24 04:44:57;;;;;;;0.47;0.30;;;16.10;69.50;;;;;;4986322;28;20053;-18
2022/11/24 04:47:23;;;;;;;0.40;0.30;;;16.10;69.60;;;;;;4987329;28;20073;-18
2022/11/24 04:49:49;;;;;;;0.35;0.30;;;16.00;69.50;;;;;;4987168;28;20077;-18
2022/11/24 04:52:18;;;;;;;0.40;0.20;;;16.10;69.30;;;;;;4987085;28;20507;-18
2022/11/24 04:54:44;;;;;;;0.40;0.30;;;16.10;69.20;;;;;;4988291;28;20105;-19
2022/11/24 04:57:15;;;;;;;0.30;0.20;;;16.10;69.30;;;;;;4986914;28;20046;-19
2022/11/24 04:59:40;;;;;;;0.95;0.30;;;16.10;69.40;;;;;;4986592;28;20550;-18
2022/11/24 05:02:07;;;;;;;0.20;0.17;;;16.10;69.30;;;;;;4987446;28;20042;-18
2022/11/24 05:04:32;;;;;;;0.60;0.40;;;16.20;68.90;;;;;;4986192;28;20065;-18
2022/11/24 05:06:58;;;;;;;0.30;0.25;;;16.10;69.10;;;;;;4987206;28;20047;-19
2022/11/24 05:09:23;;;;;;;0.20;0.20;;;16.10;69.20;;;;;;4987843;28;20046;-19
2022/11/24 05:11:49;;;;;;;0.43;0.30;;;16.10;69.20;;;;;;4987506;28;20385;-19
2022/11/24 05:14:14;;;;;;;0.20;0.13;;;16.10;69.20;;;;;;4986015;28;20094;-17
2022/11/24 05:16:40;;;;;;;0.20;0.20;;;16.20;69.00;;;;;;4983821;28;20042;-19
2022/11/24 05:19:06;;;;;;;0.30;0.20;;;16.10;68.90;;;;;;4989325;28;20122;-18
2022/11/24 05:21:31;;;;;;;0.10;0.10;;;16.20;68.90;;;;;;4989106;28;20039;-19
2022/11/24 05:23:57;;;;;;;0.40;0.40;;;16.10;69.00;;;;;;4987825;28;20050;-19
2022/11/24 05:26:22;;;;;;;0.38;0.20;;;16.10;69.90;;;;;;4990376;28;20129;-18
2022/11/24 05:28:48;;;;;;;0.57;0.25;;;16.10;69.20;;;;;;4991703;28;20554;-19
2022/11/24 05:31:13;;;;;;;0.30;0.20;;;16.10;69.20;;;;;;4987565;28;20037;-18
2022/11/24 05:33:39;;;;;;;0.20;0.10;;;16.10;69.20;;;;;;4990600;28;20968;-19
2022/11/24 05:36:05;;;;;;;0.35;0.20;;;16.10;69.00;;;;;;4989887;28;20055;-18
2022/11/24 05:38:32;;;;;;;0.20;0.20;;;16.00;69.10;;;;;;4998735;28;20109;-19
2022/11/24 05:41:01;;;;;;;0.45;0.20;;;16.10;69.20;;;;;;4988237;28;20047;-19
2022/11/24 05:43:27;;;;;;;0.40;0.30;;;16.00;69.20;;;;;;4989548;28;20049;-18
2022/11/24 05:45:52;;;;;;;0.55;0.28;;;16.00;69.30;;;;;;4988206;28;20034;-18
2022/11/24 05:48:18;;;;;;;0.20;0.20;;;16.10;69.20;;;;;;4990247;28;20057;-18
2022/11/24 05:50:43;;;;;;;0.10;0.10;;;16.00;69.30;;;;;;4992519;28;20516;-18
2022/11/24 05:53:11;;;;;;;0.82;0.50;;;16.00;69.20;;;;;;4987910;28;20065;-18
2022/11/24 05:55:37;;;;;;;0.30;0.30;;;16.10;69.10;;;;;;4989909;28;20030;-18
2022/11/24 05:58:03;;;;;;;0.25;0.20;;;16.00;69.10;;;;;;4989880;28;20480;-18
2022/11/24 06:00:30;;;;;;;0.17;0.17;;;16.00;69.30;;;;;;4987728;28;20126;-27
2022/11/24 06:02:58;;;;;;;0.35;0.28;;;16.00;69.40;;;;;;4989533;28;20054;-18
2022/11/24 06:05:24;;;;;;;1.30;0.38;;;16.10;69.00;;;;;;4987789;28;20050;-20
2022/11/24 06:07:51;;;;;;;0.30;0.20;;;16.10;69.10;;;;;;4989589;28;20039;-19
2022/11/24 06:10:16;;;;;;;0.80;0.20;;;16.10;69.00;;;;;;4988621;28;20034;-23
2022/11/24 06:12:42;;;;;;;0.10;0.10;;;16.00;69.20;;;;;;4987460;28;20393;-19
2022/11/24 06:15:08;;;;;;;0.45;0.40;;;16.00;69.10;;;;;;4987738;28;20049;-18
2022/11/24 06:17:34;;;;;;;0.45;0.20;;;16.00;69.00;;;;;;4986472;28;20048;-18
2022/11/24 06:19:59;;;;;;;0.35;0.22;;;16.00;69.10;;;;;;4987292;28;20035;-18
2022/11/24 06:22:25;;;;;;;0.40;0.30;;;16.00;69.10;;;;;;4986949;28;20057;-19
2022/11/24 06:24:50;;;;;;;0.40;0.25;;;16.00;69.40;;;;;;4986817;28;20050;-18
2022/11/24 06:27:16;;;;;;;0.30;0.28;;;16.00;69.10;;;;;;4999581;28;20093;-19
2022/11/24 06:29:42;;;;;;;0.30;0.30;;;16.10;69.60;;;;;;4988283;28;20101;-20
2022/11/24 06:32:07;;;;;;;0.30;0.20;;;16.10;68.90;;;;;;4988785;28;20585;-18
2022/11/24 06:34:33;;;;;;;0.43;0.20;;;16.20;68.70;;;;;;4987314;28;20238;-19
2022/11/24 06:36:58;;;;;;;0.20;0.20;;;16.10;68.90;;;;;;4989010;28;20050;-18
2022/11/24 06:39:24;;;;;;;1.67;0.30;;;16.00;69.10;;;;;;4986194;28;20050;-19
2022/11/24 06:41:50;;;;;;;0.40;0.30;;;16.00;69.20;;;;;;4985354;28;20125;-18
2022/11/24 06:44:15;;;;;;;0.30;0.20;;;16.00;69.20;;;;;;4986338;28;20350;-18
2022/11/24 06:46:41;;;;;;;0.25;0.20;;;16.00;69.80;;;;;;4986963;28;20046;-18
2022/11/24 06:49:06;;;;;;;0.45;0.30;;;16.00;69.10;;;;;;4988658;28;20077;-21
2022/11/24 06:51:32;;;;;;;0.60;0.30;;;15.90;69.20;;;;;;4989331;28;20093;-18
2022/11/24 06:53:57;;;;;;;0.50;0.50;;;16.00;69.10;;;;;;4988727;28;20403;-18
2022/11/24 06:56:23;;;;;;;0.73;0.10;;;16.00;69.20;;;;;;4983884;28;20042;-19
2022/11/24 06:58:50;;;;;;;0.90;0.55;;;16.00;69.00;;;;;;4983152;28;20104;-19
2022/11/24 07:01:26;;;;;;;0.47;0.47;;;16.00;69.00;;;;;;4984692;28;20105;-18
2022/11/24 07:03:52;;;;;;;0.40;0.20;;;16.10;68.90;;;;;;4636866;28;10000762;-19
2022/11/24 07:06:18;;;;;;;1.55;0.40;;;16.00;68.80;;;;;;4978407;28;20050;-18
2022/11/24 07:08:43;;;;;;;0.57;0.20;;;16.00;70.10;;;;;;4984593;28;20050;-18
2022/11/24 07:11:11;;;;;;;0.20;0.20;;;16.00;69.30;;;;;;4984706;28;20496;-18
2022/11/24 07:13:36;;;;;;;0.90;0.38;;;16.00;69.30;;;;;;4985262;28;20034;-18
2022/11/24 07:16:27;;;;;;;0.38;0.25;;;16.00;69.50;;;;;;4982468;28;20042;-18
2022/11/24 07:18:53;;;;;;;0.70;0.30;;;16.00;69.50;;;;;;4971013;28;20027;-18
2022/11/24 07:21:19;;;;;;;0.45;0.30;;;16.00;69.50;;;;;;4984637;28;20045;-18
2022/11/24 07:23:49;;;;;;;0.55;0.43;;;16.00;69.60;;;;;;4980741;28;20049;-19
2022/11/24 07:26:14;;;;;;;0.52;0.40;;;16.00;69.70;;;;;;4980146;28;20034;-18
2022/11/24 07:28:40;;;;;;;0.60;0.22;;;16.00;69.50;;;;;;4979988;28;20046;-19
2022/11/24 07:31:10;;;;;;;1.10;0.68;;;16.00;69.60;;;;;;4979216;28;20054;-18
2022/11/24 07:33:35;;;;;;;0.28;0.20;;;16.00;69.10;;;;;;5008912;28;20039;-18
2022/11/24 07:36:01;;;;;;;4.70;0.75;;;16.10;69.20;;;;;;4979880;28;20042;-19
2022/11/24 07:38:28;;;;;;;0.30;0.30;;;16.00;69.40;;;;;;4984356;28;20054;-20
2022/11/24 07:40:53;;;;;;;1.67;0.35;;;16.10;69.20;;;;;;4983685;28;20539;-19
2022/11/24 07:43:19;;;;;;;0.60;0.30;;;16.00;69.00;;;;;;4984945;28;20035;-18
2022/11/24 07:45:50;;;;;;;0.30;0.20;;;16.10;68.90;;;;;;4984148;28;20574;-18
2022/11/24 07:48:16;;;;;;;0.40;0.30;;;16.10;68.80;;;;;;4981364;28;20038;-18
2022/11/24 07:50:41;;;;;;;0.20;0.10;;;16.30;68.60;;;;;;4983468;28;20058;-19
2022/11/24 07:53:07;;;;;;;0.70;0.43;;;16.20;68.70;;;;;;4982880;28;20138;-19
2022/11/24 07:55:32;;;;;;;0.40;0.20;;;16.20;68.80;;;;;;4981538;28;20520;-19
2022/11/24 07:57:59;;;;;;;0.40;0.40;;;16.10;69.00;;;;;;4977132;28;20043;-18
2022/11/24 08:00:26;;;;;;;0.63;0.40;;;16.10;69.10;;;;;;4981591;28;20054;-18
2022/11/24 08:02:51;;;;;;;0.80;0.50;;;16.00;69.00;;;;;;4977901;28;20523;-18
2022/11/24 08:05:17;;;;;;;0.47;0.20;;;16.00;69.10;;;;;;4983393;28;20050;-20
2022/11/24 08:07:42;;;;;;;0.95;0.40;;;16.00;69.40;;;;;;4982061;28;20288;-18
2022/11/24 08:10:08;;;;;;;0.60;0.30;;;16.00;69.30;;;;;;4982626;28;20074;-18
2022/11/24 08:12:34;;;;;;;0.47;0.20;;;16.10;69.20;;;;;;4984960;28;20376;-18
2022/11/24 08:14:59;;;;;;;1.23;0.65;;;16.10;69.10;;;;;;4987609;28;20034;-19
2022/11/24 08:17:25;;;;;;;1.05;0.50;;;16.10;69.10;;;;;;4985074;28;20463;-18
2022/11/24 08:19:50;;;;;;;0.82;0.40;;;16.00;69.30;;;;;;4985912;28;20062;-18
2022/11/24 08:22:16;;;;;;;0.38;0.22;;;16.00;69.30;;;;;;4986353;28;20050;-18
2022/11/24 08:24:46;;;;;;;0.80;0.30;;;16.10;70.10;;;;;;4986735;28;20392;-18
2022/11/24 08:27:12;;;;;;;1.15;0.40;;;16.10;69.10;;;;;;4983425;28;20059;-18
2022/11/24 08:29:38;;;;;;;0.60;0.28;;;16.10;68.90;;;;;;4987751;28;20088;-18
2022/11/24 08:32:04;;;;;;;0.47;0.40;;;16.10;69.90;;;;;;4988144;28;20046;-18
2022/11/24 08:34:29;;;;;;;0.60;0.40;;;16.00;69.40;;;;;;4985444;28;20046;-19
2022/11/24 08:36:55;;;;;;;0.50;0.28;;;16.00;69.40;;;;;;4987855;28;20129;-18
2022/11/24 08:39:20;;;;;;;0.47;0.20;;;16.00;70.00;;;;;;4985495;28;20050;-18
2022/11/24 08:41:46;;;;;;;0.35;0.20;;;16.00;69.10;;;;;;4987584;28;20089;-18
2022/11/24 08:44:14;;;;;;;0.40;0.30;;;16.00;69.30;;;;;;4987216;28;20514;-18
2022/11/24 08:46:40;;;;;;;2.05;0.30;;;16.00;69.10;;;;;;4983749;28;20042;-19
2022/11/24 08:49:06;;;;;;;0.60;0.30;;;15.90;69.40;;;;;;4988038;28;20595;-19
2022/11/24 08:51:31;;;;;;;0.45;0.40;;;16.10;69.20;;;;;;4987107;28;20066;-18
2022/11/24 08:53:58;;;;;;;0.60;0.40;;;16.10;69.10;;;;;;4986149;28;20531;-18
2022/11/24 08:56:28;;;;;;;0.73;0.60;;;16.00;69.20;;;;;;4983815;28;20123;-18
2022/11/24 08:58:54;;;;;;;0.93;0.40;;;15.90;69.30;;;;;;5001727;28;20057;-18
2022/11/24 09:01:19;;;;;;;3.92;0.50;;;16.00;70.10;;;;;;4987264;28;20118;-19
2022/11/24 09:03:47;;;;;;;0.60;0.30;;;16.00;69.30;;;;;;4987092;28;20042;-19
2022/11/24 09:06:12;;;;;;;0.70;0.45;;;15.90;69.20;;;;;;4985620;28;20050;-18
2022/11/24 09:08:38;;;;;;;0.70;0.50;;;15.90;70.10;;;;;;4986246;28;20077;-19
2022/11/24 09:11:11;;;;;;;0.85;0.55;;;16.00;69.40;;;;;;4983385;28;20081;-19
2022/11/24 09:13:37;;;;;;;0.60;0.30;;;16.00;69.30;;;;;;4985571;28;20683;-18
2022/11/24 09:16:03;;;;;;;0.82;0.40;;;16.00;69.00;;;;;;4981755;28;20417;-18
2022/11/24 09:18:29;;;;;;;0.65;0.50;;;16.00;69.00;;;;;;4987405;28;20534;-19
2022/11/24 09:20:57;;;;;;;1.17;0.45;;;16.00;69.00;;;;;;4986325;28;20038;-19
2022/11/24 09:23:22;;;;;;;0.50;0.20;;;16.00;69.10;;;;;;4985663;28;20077;-18
2022/11/24 09:25:48;;;;;;;0.40;0.35;;;16.00;69.20;;;;;;4987283;28;20078;-18
2022/11/24 09:28:13;;;;;;;1.50;0.32;;;15.90;69.30;;;;;;4985495;28;20070;-19
2022/11/24 09:30:39;;;;;;;1.13;0.45;;;16.00;69.30;;;;;;4985998;28;20043;-20
2022/11/24 09:33:05;;;;;;;0.60;0.20;;;15.90;69.20;;;;;;4984876;28;20038;-18
2022/11/24 09:35:30;;;;;;;0.75;0.30;;;16.00;69.40;;;;;;4984774;28;20061;-25
2022/11/24 09:37:56;;;;;;;0.50;0.32;;;15.90;69.20;;;;;;4987220;28;20442;-19
2022/11/24 09:40:22;;;;;;;0.38;0.22;;;16.00;69.30;;;;;;4984411;28;20093;-18
2022/11/24 09:43:08;;;;;;;0.30;0.30;;;16.00;69.40;;;;;;4987006;28;20416;-19
2022/11/24 09:45:42;;;;;;;0.75;0.40;;;16.00;69.40;;;;;;4992878;28;20054;-23
2022/11/24 09:48:11;;;;;;;0.50;0.30;;;16.00;69.20;;;;;;4986002;28;20046;-20
2022/11/24 09:50:37;;;;;;;0.95;0.52;;;16.10;69.20;;;;;;4985847;28;20133;-19
2022/11/24 09:53:05;;;;;;;1.50;0.40;;;16.30;68.50;;;;;;4984944;28;20461;-20
2022/11/24 09:55:48;;;;;;;0.73;0.35;;;16.40;68.00;;;;;;4986272;28;20149;-22
2022/11/24 09:58:30;;;;;;;0.82;0.30;;;16.40;68.00;;;;;;4982417;28;20034;-18
2022/11/24 10:00:56;;;;;;;0.65;0.45;;;16.40;68.20;;;;;;4984821;28;20046;-18
2022/11/24 10:03:35;;;;;;;0.40;0.25;;;16.30;68.50;;;;;;4984844;28;20121;-19
2022/11/24 10:06:04;;;;;;;0.80;0.60;;;16.40;68.90;;;;;;4984739;28;20496;-18
2022/11/24 10:09:05;;;;;;;0.80;0.30;;;16.50;67.70;;;;;;4994895;28;20035;-18
2022/11/24 10:11:49;;;;;;;0.50;0.43;;;16.50;67.80;;;;;;4973325;28;20254;-18
2022/11/24 10:14:35;;;;;;;0.73;0.50;;;16.60;67.60;;;;;;5013284;28;20121;-19
2022/11/24 10:17:20;;;;;;;0.70;0.50;;;16.60;67.80;;;;;;4986170;28;20050;-18
2022/11/24 10:20:32;;;;;;;0.38;0.38;;;16.50;67.70;;;;;;5014239;28;20045;-19
2022/11/24 10:22:57;;;;;;;1.10;0.50;;;16.50;67.80;;;;;;4967972;28;20046;-18
2022/11/24 10:25:29;;;;;;;0.68;0.43;;;16.50;67.90;;;;;;4966267;28;20042;-18
2022/11/24 10:27:59;;;;;;;0.52;0.43;;;16.40;68.00;;;;;;4965232;28;20035;-18
2022/11/24 10:30:25;;;;;;;0.60;0.30;;;16.20;68.60;;;;;;4950903;28;20523;-25
2022/11/24 10:33:00;;;;;;;0.40;0.30;;;16.20;68.70;;;;;;4964423;28;20053;-19
2022/11/24 10:35:37;;;;;;;0.50;0.40;;;16.30;68.50;;;;;;4934790;28;20078;-19
2022/11/24 10:38:15;;;;;;;0.57;0.20;;;16.30;68.60;;;;;;4937061;28;20070;-18
2022/11/24 10:40:43;;;;;;;1.05;0.52;;;16.30;68.40;;;;;;4962949;28;20141;-18
2022/11/24 10:43:09;;;;;;;0.30;0.30;;;16.30;68.20;;;;;;4963909;28;20050;-18
2022/11/24 10:45:38;;;;;;;0.90;0.32;;;16.20;68.50;;;;;;4967387;28;20520;-18
2022/11/24 10:48:07;;;;;;;0.80;0.40;;;16.20;68.90;;;;;;4967699;28;20055;-19
2022/11/24 10:50:35;;;;;;;0.30;0.30;;;16.20;69.00;;;;;;4967529;28;20042;-19
2022/11/24 10:53:21;;;;;;;0.70;0.47;;;16.20;69.00;;;;;;4951744;28;20039;-18
2022/11/24 10:55:56;;;;;;;0.50;0.30;;;16.20;68.70;;;;;;4966938;28;20126;-18
2022/11/24 10:58:23;;;;;;;0.70;0.40;;;16.10;68.80;;;;;;4988063;28;20042;-18
2022/11/24 11:00:49;;;;;;;0.80;0.35;;;16.20;68.90;;;;;;4987799;28;20101;-18
2022/11/24 11:03:30;;;;;;;0.52;0.40;;;16.20;68.70;;;;;;4988124;28;20050;-18
2022/11/24 11:06:00;;;;;;;0.35;0.28;;;16.20;68.60;;;;;;4972254;28;20046;-18
2022/11/24 11:08:28;;;;;;;0.57;0.38;;;16.10;68.70;;;;;;4660369;28;10000472;-18
2022/11/24 11:11:13;;;;;;;0.73;0.47;;;16.10;68.80;;;;;;4976797;28;20082;-18
2022/11/24 11:13:50;;;;;;;0.65;0.30;;;16.20;69.20;;;;;;4983504;28;20124;-30
2022/11/24 11:16:40;;;;;;;0.65;0.50;;;16.30;69.20;;;;;;4981516;28;20050;-18
2022/11/24 11:19:27;;;;;;;0.82;0.30;;;16.30;69.00;;;;;;4982928;28;20584;-18
2022/11/24 11:22:00;;;;;;;0.65;0.40;;;16.30;69.00;;;;;;4981724;28;20137;-18
2022/11/24 11:24:25;;;;;;;0.40;0.40;;;16.40;68.80;;;;;;4979406;28;20046;-18
2022/11/24 11:27:04;;;;;;;1.15;0.30;;;16.50;68.50;;;;;;5003297;28;20073;-18
2022/11/24 11:29:30;;;;;;;0.93;0.28;;;16.50;68.20;;;;;;4980805;28;20550;-19
2022/11/24 11:31:57;;;;;;;0.90;0.60;;;16.60;68.00;;;;;;4980251;28;20046;-18
2022/11/24 11:34:22;;;;;;;0.90;0.20;;;16.60;68.00;;;;;;4981983;28;20169;-18
2022/11/24 11:36:49;;;;;;;0.57;0.32;;;16.70;67.80;;;;;;4983174;28;20706;-19
2022/11/24 11:39:34;;;;;;;0.50;0.40;;;16.80;67.60;;;;;;4974037;28;20133;-28
2022/11/24 11:42:25;;;;;;;0.57;0.40;;;16.80;67.50;;;;;;4972300;28;20054;-18
2022/11/24 11:45:00;;;;;;;0.52;0.35;;;16.80;67.30;;;;;;4991215;28;20046;-25
2022/11/24 11:47:37;;;;;;;0.47;0.28;;;16.70;67.40;;;;;;4977434;28;20054;-19
2022/11/24 11:50:14;;;;;;;0.50;0.38;;;16.80;67.60;;;;;;4978743;28;20113;-19
2022/11/24 11:53:04;;;;;;;0.50;0.30;;;16.80;67.50;;;;;;4978424;28;20061;-19
2022/11/24 11:55:52;;;;;;;1.98;0.50;;;16.80;68.30;;;;;;4977888;28;20034;-18
2022/11/24 11:58:52;;;;;;;0.90;0.30;;;16.70;67.60;;;;;;4979432;28;20077;-18
2022/11/24 12:01:26;;;;;;;1.67;0.45;;;16.70;67.70;;;;;;4981324;28;20065;-18
2022/11/24 12:04:12;;;;;;;0.45;0.30;;;16.70;67.80;;;;;;4977054;28;20463;-18
2022/11/24 12:06:44;;;;;;;0.82;0.40;;;16.70;67.70;;;;;;5008370;28;20069;-18
2022/11/24 12:09:32;;;;;;;0.52;0.43;;;16.70;67.60;;;;;;4981383;28;20747;-18
2022/11/24 12:11:58;;;;;;;0.52;0.43;;;16.70;67.80;;;;;;4993347;28;20046;-18
2022/11/24 12:14:58;;;;;;;0.45;0.40;;;16.60;67.90;;;;;;4981146;28;20061;-19
2022/11/24 12:17:41;;;;;;;0.60;0.32;;;16.60;68.20;;;;;;4979380;28;20124;-18
2022/11/24 12:20:22;;;;;;;0.85;0.32;;;16.70;68.00;;;;;;5004863;28;20042;-18
2022/11/24 12:23:13;;;;;;;1.38;0.40;;;16.80;67.60;;;;;;4976676;28;20062;-18
2022/11/24 12:25:41;;;;;;;1.33;0.30;;;16.70;67.70;;;;;;4977630;28;20550;-18
2022/11/24 12:28:28;;;;;;;0.65;0.30;;;16.80;67.50;;;;;;4979020;28;20496;-18
2022/11/24 12:31:07;;;;;;;1.52;0.70;;;16.80;67.50;;;;;;4978429;28;20042;-19
2022/11/24 12:33:48;;;;;;;0.50;0.40;;;16.60;68.00;;;;;;4979121;28;20077;-19
2022/11/24 12:36:48;;;;;;;2.42;0.52;;;16.80;67.80;;;;;;4976334;28;20491;-19
2022/11/24 12:39:51;;;;;;;3.42;0.35;;;16.70;67.90;;;;;;4978104;28;20038;-19
2022/11/24 12:42:44;;;;;;;0.45;0.20;;;16.70;67.90;;;;;;4977531;28;20507;-19
2022/11/24 12:45:12;;;;;;;1.10;0.20;;;16.70;68.10;;;;;;4979011;28;20042;-19
2022/11/24 12:47:48;;;;;;;0.63;0.30;;;16.70;68.30;;;;;;4987212;28;20053;-19
2022/11/24 12:50:18;;;;;;;0.93;0.45;;;16.60;69.10;;;;;;4982673;28;20042;-18
2022/11/24 12:52:54;;;;;;;0.50;0.38;;;16.60;68.30;;;;;;4981892;28;20184;-18
2022/11/24 12:55:21;;;;;;;0.95;0.43;;;16.50;68.60;;;;;;4979707;28;20057;-19